Time;durP1;ratioP1;P1;durP2;ratioP2;P2;SDS_P1;SDS_P2;PMS_P1;PMS_P2;Temp;Humidity;BMP_temperature;BMP_pressure;BME280_temperature;BME280_humidity;BME280_pressure;Samples;Min_cycle;Max_cycle;Signal;HPM_P1;HPM_P2
2022/07/11 00:02:04;;;;;;;1.60;1.20;;;;;;;20.00;55.63;101368.66;6123000;23;20001;-85
2022/07/11 00:04:30;;;;;;;1.42;0.95;;;;;;;20.10;56.46;101366.84;6124286;23;20032;-84
2022/07/11 00:06:56;;;;;;;1.92;1.15;;;;;;;20.23;55.70;101360.38;6125269;23;20456;-84
2022/07/11 00:09:21;;;;;;;2.30;0.82;;;;;;;20.34;56.62;101368.19;6125985;23;20002;-85
2022/07/11 00:11:47;;;;;;;1.13;1.00;;;;;;;20.35;57.35;101361.88;6126350;23;20006;-85
2022/07/11 00:14:13;;;;;;;1.42;1.10;;;;;;;20.32;57.03;101356.81;6126115;23;20013;-86
2022/07/11 00:16:38;;;;;;;3.20;1.02;;;;;;;20.24;57.25;101357.56;6125801;23;20380;-85
2022/07/11 00:19:05;;;;;;;3.60;1.20;;;;;;;20.32;59.02;101359.47;6124461;23;20006;-85
2022/07/11 00:21:30;;;;;;;1.55;1.13;;;;;;;20.31;57.87;101365.81;6126141;23;20002;-85
2022/07/11 00:23:56;;;;;;;1.17;0.80;;;;;;;20.35;58.24;101359.22;6126418;23;20005;-85
2022/07/11 00:26:22;;;;;;;1.77;1.00;;;;;;;20.37;58.88;101354.56;6126461;23;20002;-83
2022/07/11 00:28:47;;;;;;;1.27;1.10;;;;;;;20.40;60.88;101359.63;6126232;23;20485;-85
2022/07/11 00:31:13;;;;;;;3.17;1.00;;;;;;;20.41;60.51;101353.28;6126191;23;20013;-84
2022/07/11 00:33:38;;;;;;;2.40;1.17;;;;;;;20.33;61.33;101354.00;6126021;23;20080;-84
2022/07/11 00:36:04;;;;;;;1.08;0.60;;;;;;;20.32;60.52;101354.16;6124589;23;20038;-85
2022/07/11 00:38:29;;;;;;;1.30;1.00;;;;;;;20.28;59.97;101350.94;6125996;23;20002;-84
2022/07/11 00:40:55;;;;;;;1.05;0.85;;;;;;;20.25;60.02;101358.41;6126162;23;20006;-84
2022/07/11 00:43:33;;;;;;;1.20;1.10;;;;;;;20.35;61.48;101354.69;6124286;23;20434;-84
2022/07/11 00:45:59;;;;;;;1.02;0.90;;;;;;;20.29;61.95;101349.94;6125825;23;20043;-84
2022/07/11 00:48:24;;;;;;;2.28;0.80;;;;;;;20.17;60.31;101351.94;6125520;23;20322;-84
2022/07/11 00:50:50;;;;;;;1.20;0.98;;;;;;;20.29;58.84;101357.13;6124430;23;20068;-84
2022/07/11 00:53:17;;;;;;;1.73;0.80;;;;;;;20.10;58.88;101353.53;6125688;23;20085;-84
2022/07/11 00:55:42;;;;;;;1.35;1.08;;;;;;;20.19;59.90;101359.81;6125349;23;20032;-84
2022/07/11 00:58:08;;;;;;;1.50;0.88;;;;;;;20.23;61.02;101360.38;6125591;23;20489;-84
2022/07/11 01:00:33;;;;;;;1.08;0.80;;;;;;;20.23;60.49;101355.03;6125627;23;20006;-85
2022/07/11 01:02:58;;;;;;;3.70;1.10;;;;;;;20.23;60.04;101355.03;6125473;23;20085;-85
2022/07/11 01:05:24;;;;;;;1.58;0.95;;;;;;;20.20;61.52;101361.47;6125259;23;20009;-84
2022/07/11 01:07:49;;;;;;;2.22;1.25;;;;;;;20.04;61.38;101361.22;6124983;23;20006;-84
2022/07/11 01:10:14;;;;;;;1.33;1.00;;;;;;;20.04;60.66;101362.06;6126168;23;20009;-84
2022/07/11 01:12:40;;;;;;;3.15;0.95;;;;;;;20.04;60.30;101366.56;6124490;23;20024;-85
2022/07/11 01:15:07;;;;;;;2.17;1.08;;;;;;;20.00;61.73;101360.66;6125054;23;20017;-84
2022/07/11 01:17:33;;;;;;;1.10;0.88;;;;;;;19.96;62.01;101356.63;6123980;23;20080;-84
2022/07/11 01:19:58;;;;;;;1.95;1.10;;;;;;;19.88;61.69;101356.47;6123761;23;20330;-84
2022/07/11 01:22:26;;;;;;;1.98;1.20;;;;;;;19.91;61.20;101356.22;6125210;23;20377;-84
2022/07/11 01:24:52;;;;;;;1.10;0.95;;;;;;;19.87;64.04;101360.97;6124769;23;20000;-84
2022/07/11 01:27:19;;;;;;;1.40;1.05;;;;;;;19.88;63.81;101357.31;6125677;23;20006;-84
2022/07/11 01:29:44;;;;;;;2.60;1.25;;;;;;;19.86;64.85;101356.63;6125733;23;20017;-84
2022/07/11 01:32:10;;;;;;;3.13;1.02;;;;;;;19.78;65.59;101352.00;6125516;23;20025;-84
2022/07/11 01:34:35;;;;;;;2.10;1.10;;;;;;;19.78;64.32;101357.31;6125695;23;20006;-84
2022/07/11 01:37:00;;;;;;;2.67;1.02;;;;;;;19.75;66.43;101360.28;6125466;23;20006;-84
2022/07/11 01:39:29;;;;;;;1.35;1.00;;;;;;;19.69;66.44;101352.81;6124021;23;20089;-84
2022/07/11 01:41:56;;;;;;;2.65;1.00;;;;;;;19.61;67.28;101345.53;6125276;23;20321;-84
2022/07/11 01:44:21;;;;;;;3.33;1.27;;;;;;;19.50;67.03;101344.84;6123952;23;20064;-84
2022/07/11 01:46:47;;;;;;;2.55;1.15;;;;;;;19.47;68.50;101342.44;6125736;23;20006;-84
2022/07/11 01:49:13;;;;;;;2.33;1.30;;;;;;;19.40;67.50;101340.34;6125916;23;20302;-84
2022/07/11 01:51:38;;;;;;;2.58;1.27;;;;;;;19.37;67.73;101343.28;6125484;23;20413;-84
2022/07/11 01:54:03;;;;;;;1.30;1.10;;;;;;;19.46;68.08;101330.94;6125231;23;20061;-84
2022/07/11 01:56:32;;;;;;;0.93;0.88;;;;;;;19.40;69.51;101343.00;6125519;23;20034;-84
2022/07/11 01:58:58;;;;;;;3.25;1.42;;;;;;;19.35;67.84;101344.38;6123746;23;20017;-83
2022/07/11 02:01:24;;;;;;;3.90;1.38;;;;;;;19.25;68.19;101332.88;6125354;23;20006;-84
2022/07/11 02:03:49;;;;;;;3.53;1.58;;;;;;;19.27;67.87;101339.75;6148209;23;20429;-84
2022/07/11 02:06:15;;;;;;;3.53;1.25;;;;;;;19.28;69.62;101336.13;6125235;23;20034;-84
2022/07/11 02:08:40;;;;;;;1.77;1.35;;;;;;;19.17;67.18;101342.44;6125221;23;20501;-84
2022/07/11 02:11:05;;;;;;;2.80;1.60;;;;;;;19.22;68.88;101334.00;6125118;23;20006;-83
2022/07/11 02:13:31;;;;;;;3.95;1.60;;;;;;;19.22;68.90;101329.53;6125173;23;20006;-84
2022/07/11 02:15:56;;;;;;;1.75;1.58;;;;;;;19.26;68.45;101331.94;6125047;23;20042;-84
2022/07/11 02:18:21;;;;;;;4.45;2.28;;;;;;;19.23;69.88;101325.03;6125231;23;20013;-84
2022/07/11 02:20:48;;;;;;;2.65;1.30;;;;;;;19.21;70.85;101327.84;6123404;23;20002;-83
2022/07/11 02:23:16;;;;;;;4.50;1.60;;;;;;;19.24;70.37;101337.38;6125023;23;20006;-83
2022/07/11 02:25:41;;;;;;;3.22;1.70;;;;;;;19.17;70.64;101341.56;6124758;23;20459;-83
2022/07/11 02:28:08;;;;;;;2.75;1.67;;;;;;;19.14;70.50;101334.69;6124705;23;20002;-83
2022/07/11 02:30:35;;;;;;;7.05;1.88;;;;;;;19.19;72.36;101328.94;6125146;23;20080;-84
2022/07/11 02:33:00;;;;;;;4.75;1.85;;;;;;;19.17;71.88;101328.25;6125143;23;20002;-84
2022/07/11 02:35:25;;;;;;;1.73;1.40;;;;;;;19.12;72.00;101327.84;6122930;23;20013;-84
2022/07/11 02:37:51;;;;;;;2.22;1.50;;;;;;;19.11;72.39;101331.47;6124865;23;20006;-84
2022/07/11 02:40:16;;;;;;;2.90;1.70;;;;;;;19.09;72.76;101325.44;6148061;23;20006;-83
2022/07/11 02:42:42;;;;;;;2.35;1.77;;;;;;;19.11;71.23;101326.13;6124827;23;20381;-84
2022/07/11 02:45:08;;;;;;;2.08;1.63;;;;;;;19.01;71.23;101326.13;6125019;23;20006;-84
2022/07/11 02:47:38;;;;;;;2.67;1.85;;;;;;;19.00;72.52;101319.97;6124917;23;20033;-83
2022/07/11 02:50:04;;;;;;;2.63;1.95;;;;;;;18.95;72.39;101316.84;6125072;23;20098;-84
2022/07/11 02:52:30;;;;;;;2.63;1.50;;;;;;;18.92;70.82;101311.00;6124867;23;20085;-83
2022/07/11 02:54:55;;;;;;;1.52;1.40;;;;;;;18.94;70.84;101315.19;6147854;23;20034;-83
2022/07/11 02:57:20;;;;;;;1.98;1.52;;;;;;;18.87;73.23;101313.22;6124933;23;20445;-83
2022/07/11 02:59:46;;;;;;;4.10;1.60;;;;;;;18.82;72.53;101324.28;6124777;23;20426;-83
2022/07/11 03:02:11;;;;;;;3.03;1.63;;;;;;;18.81;72.66;101314.59;6124294;23;20323;-83
2022/07/11 03:04:36;;;;;;;3.42;1.88;;;;;;;18.74;72.33;101316.06;6124887;23;20419;-83
2022/07/11 03:07:02;;;;;;;2.70;1.88;;;;;;;18.69;72.11;101305.84;6124825;23;20425;-83
2022/07/11 03:09:27;;;;;;;4.43;1.83;;;;;;;18.61;74.03;101308.34;6147530;23;20005;-83
2022/07/11 03:11:52;;;;;;;3.03;1.80;;;;;;;18.65;73.43;101307.09;6124686;23;20088;-83
2022/07/11 03:14:18;;;;;;;2.33;1.55;;;;;;;18.67;73.97;101317.59;6124741;23;19998;-83
2022/07/11 03:16:44;;;;;;;1.65;1.52;;;;;;;18.61;74.18;101317.16;6123025;23;20006;-83
2022/07/11 03:19:09;;;;;;;1.65;1.40;;;;;;;18.57;74.96;101315.75;6124701;23;20006;-83
2022/07/11 03:21:34;;;;;;;2.08;1.77;;;;;;;18.42;74.49;101319.72;6124805;23;20133;-84
2022/07/11 03:24:00;;;;;;;2.65;1.70;;;;;;;18.45;74.55;101308.84;6124459;23;20017;-83
2022/07/11 03:26:26;;;;;;;4.38;2.72;;;;;;;18.52;76.46;101302.03;6124810;23;20005;-83
2022/07/11 03:28:51;;;;;;;2.67;1.83;;;;;;;18.42;75.88;101295.78;6124757;23;20084;-83
2022/07/11 03:31:16;;;;;;;3.40;1.95;;;;;;;18.41;76.37;101296.78;6124561;23;20002;-83
2022/07/11 03:33:42;;;;;;;2.42;1.42;;;;;;;18.57;72.84;101286.47;6124368;23;20085;-83
2022/07/11 03:36:07;;;;;;;2.38;2.03;;;;;;;18.58;73.87;101282.88;6124588;23;20006;-83
2022/07/11 03:38:33;;;;;;;2.80;2.00;;;;;;;18.58;73.40;101282.00;6125279;23;20002;-83
2022/07/11 03:40:58;;;;;;;4.07;1.90;;;;;;;18.46;77.04;101283.91;6148327;23;20013;-84
2022/07/11 03:43:23;;;;;;;3.85;1.88;;;;;;;18.39;78.42;101278.31;6126689;23;20012;-83
2022/07/11 03:45:49;;;;;;;5.13;2.00;;;;;;;18.34;77.66;101269.03;6125338;23;20060;-83
2022/07/11 03:48:14;;;;;;;3.10;2.13;;;;;;;18.15;79.89;101272.47;6125239;23;20060;-83
2022/07/11 03:50:39;;;;;;;3.63;2.20;;;;;;;17.93;82.12;101281.41;6126254;23;20006;-83
2022/07/11 03:53:05;;;;;;;4.53;2.03;;;;;;;17.83;82.82;101279.56;6126238;23;20365;-82
2022/07/11 03:55:31;;;;;;;5.32;2.60;;;;;;;18.05;82.44;101285.69;6126151;23;20010;-84
2022/07/11 03:57:56;;;;;;;6.18;2.00;;;;;;;18.14;81.79;101276.91;6126173;23;20419;-84
2022/07/11 04:00:22;;;;;;;2.58;2.10;;;;;;;18.12;82.10;101281.53;6126342;23;20053;-84
2022/07/11 04:02:48;;;;;;;3.65;2.00;;;;;;;18.11;80.52;101284.31;6126294;23;20006;-84
2022/07/11 04:05:14;;;;;;;3.10;1.63;;;;;;;18.00;80.84;101279.94;6126292;23;20002;-84
2022/07/11 04:07:40;;;;;;;4.10;1.88;;;;;;;18.28;80.91;101277.56;6126382;23;20002;-84
2022/07/11 04:10:06;;;;;;;3.70;2.08;;;;;;;18.34;79.66;101280.50;6124961;23;20002;-84
2022/07/11 04:12:31;;;;;;;3.33;1.90;;;;;;;18.34;78.51;101282.34;6124711;23;20040;-84
2022/07/11 04:14:57;;;;;;;3.55;1.73;;;;;;;18.39;79.37;101283.63;6126094;23;20002;-84
2022/07/11 04:17:22;;;;;;;2.83;1.40;;;;;;;18.37;77.83;101280.25;6126248;23;20081;-84
2022/07/11 04:19:48;;;;;;;2.72;1.45;;;;;;;18.22;77.80;101277.09;6126363;23;20433;-84
2022/07/11 04:22:13;;;;;;;3.38;1.52;;;;;;;18.10;78.76;101291.44;6126061;23;20006;-84
2022/07/11 04:24:38;;;;;;;2.08;1.40;;;;;;;18.36;78.01;101283.03;6126405;23;20405;-84
2022/07/11 04:27:04;;;;;;;3.70;1.60;;;;;;;18.41;77.91;101278.16;6126206;23;20377;-83
2022/07/11 04:29:30;;;;;;;4.97;1.83;;;;;;;18.47;78.32;101285.59;6126070;23;20006;-84
2022/07/11 04:31:56;;;;;;;3.45;1.10;;;;;;;18.52;77.73;101287.84;6126355;23;20298;-83
2022/07/11 04:34:21;;;;;;;2.80;1.42;;;;;;;18.49;76.96;101288.97;6126197;23;20002;-84
2022/07/11 04:36:46;;;;;;;1.70;1.30;;;;;;;18.56;78.13;101283.94;6126121;23;20006;-84
2022/07/11 04:39:12;;;;;;;3.67;1.13;;;;;;;18.53;78.34;101285.06;6126212;23;20557;-84
2022/07/11 04:41:37;;;;;;;3.05;1.23;;;;;;;18.46;77.92;101288.41;6126219;23;20076;-84
2022/07/11 04:44:03;;;;;;;2.55;1.38;;;;;;;18.39;76.49;101290.75;6125730;23;20002;-84
2022/07/11 04:46:29;;;;;;;2.58;1.42;;;;;;;18.26;74.69;101284.81;6126456;23;20002;-84
2022/07/11 04:48:55;;;;;;;4.47;1.50;;;;;;;18.37;75.89;101284.72;6124460;23;20010;-84
2022/07/11 04:51:20;;;;;;;3.22;1.17;;;;;;;18.58;76.57;101288.19;6125719;23;20060;-84
2022/07/11 04:53:46;;;;;;;1.40;1.30;;;;;;;18.61;75.64;101287.91;6125741;23;19998;-84
2022/07/11 04:56:12;;;;;;;1.77;0.93;;;;;;;18.69;76.38;101294.38;6126056;23;20013;-84
2022/07/11 04:58:37;;;;;;;1.48;1.05;;;;;;;18.70;75.40;101291.56;6125995;23;20421;-84
2022/07/11 05:01:03;;;;;;;1.98;1.40;;;;;;;18.75;75.40;101291.16;6149031;23;20089;-84
2022/07/11 05:03:29;;;;;;;1.48;1.10;;;;;;;18.79;74.77;101296.09;6124346;23;20010;-84
2022/07/11 05:05:55;;;;;;;2.55;1.17;;;;;;;18.69;76.23;101292.53;6125573;23;20377;-84
2022/07/11 05:08:21;;;;;;;2.72;1.10;;;;;;;18.82;75.96;101295.84;6125897;23;20014;-84
2022/07/11 05:10:46;;;;;;;2.85;1.15;;;;;;;18.92;76.14;101306.50;6125845;23;20006;-84
2022/07/11 05:13:12;;;;;;;0.90;0.80;;;;;;;18.90;74.49;101303.13;6125779;23;20056;-84
2022/07/11 05:15:39;;;;;;;1.70;0.98;;;;;;;18.91;75.98;101309.28;6125730;23;20413;-84
2022/07/11 05:18:05;;;;;;;1.58;1.25;;;;;;;19.08;76.98;101305.13;6125690;23;20006;-84
2022/07/11 05:20:30;;;;;;;1.30;0.90;;;;;;;19.14;77.03;101305.41;6125445;23;20031;-84
2022/07/11 05:22:56;;;;;;;1.38;0.90;;;;;;;19.19;77.26;101315.63;6125796;23;20396;-84
2022/07/11 05:25:22;;;;;;;1.55;1.05;;;;;;;19.25;78.13;101312.41;6125813;23;20381;-84
2022/07/11 05:27:47;;;;;;;1.17;0.85;;;;;;;19.32;77.80;101313.56;6125713;23;20001;-84
2022/07/11 05:30:13;;;;;;;1.67;0.93;;;;;;;19.28;77.05;101317.47;6125812;23;20336;-84
2022/07/11 05:32:38;;;;;;;1.42;0.82;;;;;;;19.37;76.79;101318.47;6125849;23;20002;-84
2022/07/11 05:35:04;;;;;;;2.03;1.30;;;;;;;19.43;75.53;101325.88;6125207;23;20463;-84
2022/07/11 05:37:30;;;;;;;2.92;1.10;;;;;;;19.47;76.71;101322.00;6124504;23;20002;-84
2022/07/11 05:39:55;;;;;;;2.28;1.35;;;;;;;19.52;77.48;101319.72;6124572;23;20002;-84
2022/07/11 05:42:21;;;;;;;2.28;1.40;;;;;;;19.51;77.01;101328.72;6122875;23;20434;-83
2022/07/11 05:44:49;;;;;;;2.22;1.60;;;;;;;19.72;74.47;101317.91;6124509;23;20006;-84
2022/07/11 05:47:14;;;;;;;3.17;1.63;;;;;;;19.76;72.11;101332.63;6122730;23;20013;-85
2022/07/11 05:49:39;;;;;;;2.05;1.42;;;;;;;19.78;72.22;101330.69;6125043;23;20002;-83
2022/07/11 05:52:05;;;;;;;2.30;1.50;;;;;;;19.75;73.12;101330.97;6125188;23;20002;-83
2022/07/11 05:54:30;;;;;;;2.08;1.50;;;;;;;19.91;71.15;101337.56;6125141;23;20033;-86
2022/07/11 05:56:56;;;;;;;6.30;2.03;;;;;;;19.96;73.25;101333.50;6124824;23;20463;-84
2022/07/11 05:59:21;;;;;;;2.33;1.83;;;;;;;20.03;73.01;101336.41;6124929;23;20002;-84
2022/07/11 06:01:47;;;;;;;4.68;1.80;;;;;;;20.05;73.79;101342.44;6123991;23;20073;-84
2022/07/11 06:04:13;;;;;;;2.88;1.60;;;;;;;20.12;74.42;101345.34;6125239;23;20029;-83
2022/07/11 06:06:39;;;;;;;2.40;1.85;;;;;;;20.20;74.32;101338.34;6125139;23;20002;-83
2022/07/11 06:09:04;;;;;;;4.70;1.95;;;;;;;20.32;73.59;101346.16;6124745;23;20006;-84
2022/07/11 06:11:31;;;;;;;3.30;1.40;;;;;;;20.41;72.78;101342.63;6124793;23;20038;-83
2022/07/11 06:13:56;;;;;;;4.47;2.22;;;;;;;20.59;70.77;101348.88;6122630;23;20002;-83
2022/07/11 06:16:22;;;;;;;4.15;1.90;;;;;;;20.80;67.44;101347.84;6123849;23;20041;-83
2022/07/11 06:18:47;;;;;;;3.03;1.80;;;;;;;21.16;66.51;101353.25;6125026;23;20318;-82
2022/07/11 06:21:13;;;;;;;2.50;1.70;;;;;;;21.46;64.19;101353.91;6125319;23;20013;-84
2022/07/11 06:23:40;;;;;;;5.78;1.65;;;;;;;21.66;61.84;101351.91;6123696;23;20006;-83
2022/07/11 06:26:06;;;;;;;5.65;1.60;;;;;;;21.97;61.72;101349.66;6122333;23;20012;-82
2022/07/11 06:28:31;;;;;;;2.78;1.98;;;;;;;22.41;60.52;101349.63;6124261;23;20010;-83
2022/07/11 06:30:57;;;;;;;3.40;1.90;;;;;;;22.62;58.32;101354.59;6124583;23;20069;-83
2022/07/11 06:33:22;;;;;;;4.47;1.40;;;;;;;23.10;55.99;101346.94;6124328;23;20006;-83
2022/07/11 06:35:48;;;;;;;2.15;1.50;;;;;;;23.72;55.29;101350.03;6123705;23;20341;-83
2022/07/11 06:38:14;;;;;;;3.33;1.48;;;;;;;26.42;47.20;101343.41;6124410;23;20032;-82
2022/07/11 06:40:42;;;;;;;3.67;1.50;;;;;;;27.79;44.46;101342.72;6124594;23;20001;-83
2022/07/11 06:43:08;;;;;;;2.97;1.40;;;;;;;29.88;38.74;101336.94;6124794;23;20009;-83
2022/07/11 06:45:34;;;;;;;4.18;2.15;;;;;;;32.99;33.31;101338.72;6124826;23;20006;-83
2022/07/11 06:47:59;;;;;;;5.15;1.42;;;;;;;35.63;29.33;101345.03;6123965;23;20006;-83
2022/07/11 06:50:25;;;;;;;2.83;1.50;;;;;;;37.50;25.99;101329.50;6124708;23;20298;-83
2022/07/11 06:52:50;;;;;;;1.85;1.10;;;;;;;38.62;24.33;101334.03;6124066;23;20080;-83
2022/07/11 06:55:16;;;;;;;2.75;1.55;;;;;;;40.36;22.60;101336.72;6124501;23;20002;-83
2022/07/11 06:57:42;;;;;;;1.55;1.15;;;;;;;42.15;20.89;101337.22;6122142;23;20006;-85
2022/07/11 07:00:08;;;;;;;3.67;1.10;;;;;;;42.88;20.53;101329.66;6121615;23;20009;-84
2022/07/11 07:02:34;;;;;;;2.05;1.60;;;;;;;43.26;19.47;101329.56;6124618;23;20100;-83
2022/07/11 07:05:00;;;;;;;4.13;1.20;;;;;;;44.09;18.62;101328.91;6124656;23;19998;-84
2022/07/11 07:07:26;;;;;;;;;;;;;;;44.82;17.64;101335.31;6124554;23;20002;-84
2022/07/11 07:09:52;;;;;;;;;;;;;;;45.54;17.15;101333.50;6124897;23;19909;-84
2022/07/11 07:12:17;;;;;;;3.30;1.20;;;;;;;45.86;17.10;101334.34;6122999;23;19915;-83
2022/07/11 07:14:43;;;;;;;;;;;;;;;45.89;16.24;101336.47;6126626;23;19944;-91
2022/07/11 07:17:08;;;;;;;;;;;;;;;45.77;16.96;101336.25;6126781;23;19908;-91
2022/07/11 07:19:33;;;;;;;;;;;;;;;46.20;16.49;101330.03;6125411;23;20243;-93
2022/07/11 07:21:59;;;;;;;;;;;;;;;47.36;16.24;101339.66;6126809;23;19997;-91
2022/07/11 07:24:24;;;;;;;;;;;;;;;45.95;16.48;101332.38;6133434;23;19955;-96
2022/07/11 07:26:49;;;;;;;;;;;;;;;45.60;16.29;101335.03;6128027;23;19912;-94
2022/07/11 07:29:15;;;;;;;;;;;;;;;46.11;16.44;101338.34;6126014;23;20250;-91
2022/07/11 07:31:40;;;;;;;;;;;;;;;47.73;15.28;101337.25;6125154;23;19968;-91
2022/07/11 07:34:05;;;;;;;;;;;;;;;48.29;15.13;101329.63;6124741;23;19912;-87
2022/07/11 07:36:30;;;;;;;;;;;;;;;48.48;14.63;101339.47;6123247;23;19951;-88
2022/07/11 07:38:56;;;;;;;;;;;;;;;48.03;14.74;101329.75;6123727;23;20248;-88
2022/07/11 07:41:21;;;;;;;;;;;;;;;48.81;13.74;101320.00;6124980;23;19908;-86
2022/07/11 07:43:48;;;;;;;;;;;;;;;49.30;14.85;101331.31;6125148;23;19909;-88
2022/07/11 07:46:13;;;;;;;;;;;;;;;50.04;13.88;101344.50;6125192;23;20256;-88
2022/07/11 07:48:39;;;;;;;;;;;;;;;50.44;13.58;101339.00;6125293;23;19912;-86
2022/07/11 07:51:04;;;;;;;;;;;;;;;50.94;13.53;101336.84;6125217;23;19912;-86
2022/07/11 07:53:29;;;;;;;;;;;;;;;51.94;13.38;101341.38;6125174;23;20320;-86
2022/07/11 07:55:54;;;;;;;;;;;;;;;52.00;12.82;101339.09;6125065;23;19959;-89
2022/07/11 07:58:20;;;;;;;;;;;;;;;51.00;12.61;101327.00;6125162;23;19987;-86
2022/07/11 08:03:30;;;;;;;;;;;;;;;51.09;13.09;101321.22;6125153;23;19916;-87
2022/07/11 08:05:56;;;;;;;;;;;;;;;50.55;12.88;101328.94;6125493;23;19987;-87
2022/07/11 08:08:21;;;;;;;;;;;;;;;51.01;14.54;101320.22;6124932;23;19951;-88
2022/07/11 08:10:46;;;;;;;;;;;;;;;50.65;13.22;101321.22;6124589;23;19956;-89
2022/07/11 08:13:11;;;;;;;;;;;;;;;48.55;15.60;101323.81;6125008;23;19909;-88
2022/07/11 08:15:37;;;;;;;;;;;;;;;48.72;15.30;101317.28;6124334;23;19957;-90
2022/07/11 08:18:02;;;;;;;;;;;;;;;51.70;14.43;101325.59;6123330;23;19994;-89
2022/07/11 08:20:27;;;;;;;;;;;;;;;50.84;13.52;101318.59;6122593;23;19954;-89
2022/07/11 08:22:58;;;;;;;;;;;;;;;49.16;15.86;101312.13;6123416;23;19916;-90
2022/07/11 08:25:23;;;;;;;;;;;;;;;47.08;17.42;101315.00;6124078;23;20233;-89
2022/07/11 08:27:48;;;;;;;;;;;;;;;45.19;18.02;101327.78;6125590;23;19909;-89
2022/07/11 08:30:14;;;;;;;6.07;0.80;;;;;;;43.24;19.56;101317.19;6125883;23;19909;-89
2022/07/11 08:32:40;;;;;;;3.80;0.70;;;;;;;42.04;21.17;101316.41;6125304;23;20009;-79
2022/07/11 08:35:06;;;;;;;2.65;0.93;;;;;;;41.20;23.18;101320.25;6125403;23;20013;-79
2022/07/11 08:37:32;;;;;;;2.65;1.05;;;;;;;40.23;22.87;101318.06;6123921;23;20441;-80
2022/07/11 08:39:57;;;;;;;2.30;0.82;;;;;;;39.72;23.75;101310.75;6124310;23;20013;-80
2022/07/11 08:42:28;;;;;;;3.90;0.60;;;;;;;39.82;24.51;101313.47;6125421;23;20002;-80
2022/07/11 08:44:55;;;;;;;;;;;;;;;40.02;23.99;101317.31;6126105;23;20029;-77
2022/07/11 08:47:21;;;;;;;2.70;0.90;;;;;;;39.13;24.78;101303.13;6125527;23;19955;-79
2022/07/11 08:49:48;;;;;;;6.60;1.15;;;;;;;39.02;24.98;101311.34;6124548;23;20025;-78
2022/07/11 08:52:15;;;;;;;5.82;1.05;;;;;;;38.46;25.82;101311.19;6147937;23;20012;-78
2022/07/11 08:54:40;;;;;;;1.88;0.82;;;;;;;38.54;26.02;101302.44;6125351;23;20091;-78
2022/07/11 08:57:06;;;;;;;13.98;1.10;;;;;;;38.82;25.94;101306.59;6123268;23;20010;-78
2022/07/11 08:59:34;;;;;;;4.45;0.85;;;;;;;38.62;26.45;101312.88;6125315;23;20006;-79
2022/07/11 09:02:02;;;;;;;9.00;1.27;;;;;;;39.35;26.80;101309.13;6123515;23;20013;-79
2022/07/11 09:04:29;;;;;;;7.63;1.25;;;;;;;38.83;25.71;101301.97;6125490;23;20010;-79
2022/07/11 09:06:55;;;;;;;2.17;0.60;;;;;;;38.82;24.80;101308.53;6125617;23;20057;-79
2022/07/11 09:09:21;;;;;;;3.25;0.70;;;;;;;38.58;26.10;101300.81;6125091;23;20005;-78
2022/07/11 09:11:54;;;;;;;3.88;0.88;;;;;;;38.67;26.16;101315.66;6124834;23;20109;-80
2022/07/11 09:14:30;;;;;;;2.40;1.02;;;;;;;39.08;26.61;101301.16;6125309;23;20049;-80
2022/07/11 09:17:00;;;;;;;2.92;0.80;;;;;;;38.38;25.66;101308.97;6125317;23;20052;-80
2022/07/11 09:19:29;;;;;;;3.55;0.90;;;;;;;38.84;25.92;101300.84;6125024;23;20010;-79
2022/07/11 09:27:44;;;;;;;3.10;0.88;;;;;;;39.45;24.84;101298.16;6124667;23;20456;-79
2022/07/11 09:30:27;;;;;;;1.50;0.65;;;;;;;39.76;23.48;101298.09;6124902;23;20421;-79
2022/07/11 09:32:55;;;;;;;1.50;0.50;;;;;;;39.36;25.97;101291.56;6124762;23;20002;-81
2022/07/11 09:35:26;;;;;;;1.83;0.82;;;;;;;39.17;24.72;101288.53;6124825;23;19998;-78
2022/07/11 09:37:52;;;;;;;5.68;0.80;;;;;;;38.76;24.95;101285.75;6124272;23;20053;-79
2022/07/11 09:40:18;;;;;;;1.90;0.60;;;;;;;39.16;25.60;101288.81;6124390;23;20005;-78
2022/07/11 09:42:48;;;;;;;4.22;0.85;;;;;;;39.71;24.79;101289.84;6122846;23;20385;-78
2022/07/11 09:45:14;;;;;;;5.97;0.60;;;;;;;39.69;24.74;101283.81;6125146;23;20002;-78
2022/07/11 09:48:00;;;;;;;6.40;0.77;;;;;;;40.09;24.60;101284.84;6122882;23;20013;-78
2022/07/11 09:50:28;;;;;;;8.98;0.80;;;;;;;40.14;24.01;101282.03;6123937;23;20345;-86
2022/07/11 09:53:02;;;;;;;2.60;0.90;;;;;;;40.15;23.60;101283.69;6124494;23;20006;-79
2022/07/11 09:55:32;;;;;;;7.68;0.50;;;;;;;40.64;24.53;101274.66;6124711;23;20505;-79
2022/07/11 09:57:58;;;;;;;6.45;0.75;;;;;;;39.66;24.37;101271.47;6124583;23;20030;-80
2022/07/11 10:00:23;;;;;;;2.55;0.50;;;;;;;40.46;24.41;101266.22;6124850;23;20061;-80
2022/07/11 10:02:51;;;;;;;6.13;1.30;;;;;;;40.36;23.44;101267.09;6125186;23;20325;-79
2022/07/11 10:05:17;;;;;;;4.18;0.80;;;;;;;40.25;24.09;101269.06;6123369;23;20056;-79
2022/07/11 10:07:42;;;;;;;3.55;0.85;;;;;;;39.92;23.82;101276.09;6124233;23;20006;-79
2022/07/11 10:10:10;;;;;;;2.42;0.70;;;;;;;39.99;23.58;101279.34;6124105;23;20009;-79
2022/07/11 10:12:36;;;;;;;3.88;0.35;;;;;;;40.37;24.28;101268.75;6124417;23;20029;-78
2022/07/11 10:15:06;;;;;;;2.75;0.60;;;;;;;40.07;24.30;101278.78;6124066;23;20010;-78
2022/07/11 10:18:00;;;;;;;4.25;0.80;;;;;;;40.34;24.34;101277.56;6123063;23;20010;-78
2022/07/11 10:20:50;;;;;;;3.95;0.70;;;;;;;40.11;23.41;101268.03;6124587;23;20006;-78
2022/07/11 10:23:33;;;;;;;4.67;0.60;;;;;;;39.92;23.85;101267.84;6124201;23;20069;-80
2022/07/11 10:26:08;;;;;;;4.43;0.60;;;;;;;39.88;24.27;101267.59;6123643;23;20381;-80
2022/07/11 10:28:39;;;;;;;2.70;0.90;;;;;;;40.01;23.69;101280.75;6124414;23;20341;-79
2022/07/11 10:31:17;;;;;;;1.80;0.65;;;;;;;39.74;24.21;101281.06;6124260;23;20026;-78
2022/07/11 10:34:01;;;;;;;2.10;0.70;;;;;;;40.16;23.48;101274.34;6124267;23;20006;-80
2022/07/11 10:36:29;;;;;;;2.80;0.60;;;;;;;40.28;23.33;101274.00;6124443;23;20037;-78
2022/07/11 10:39:12;;;;;;;1.60;0.60;;;;;;;40.22;24.09;101272.38;6124752;23;20002;-78
2022/07/11 10:41:38;;;;;;;3.97;0.60;;;;;;;40.29;23.32;101263.81;6122498;23;20064;-81
2022/07/11 10:44:04;;;;;;;1.05;0.50;;;;;;;39.95;23.51;101256.28;6124207;23;20418;-80
2022/07/11 10:46:29;;;;;;;1.58;0.50;;;;;;;40.24;23.08;101259.97;6124641;23;20012;-80
2022/07/11 10:49:13;;;;;;;6.20;0.73;;;;;;;40.20;23.37;101264.41;6124815;23;20053;-79
2022/07/11 10:51:59;;;;;;;1.05;0.50;;;;;;;39.59;23.55;101259.13;6123375;23;20006;-78
2022/07/11 10:54:42;;;;;;;2.22;0.52;;;;;;;40.69;23.48;101260.00;6123870;23;20009;-80
2022/07/11 10:57:32;;;;;;;2.90;0.90;;;;;;;39.50;22.77;101255.28;6123892;23;20553;-80
2022/07/11 11:00:11;;;;;;;1.77;0.93;;;;;;;39.68;23.48;101260.19;6124264;23;20017;-78
2022/07/11 11:02:59;;;;;;;3.13;0.85;;;;;;;39.41;23.13;101261.31;6124312;23;20006;-78
2022/07/11 11:05:50;;;;;;;4.13;0.93;;;;;;;39.45;23.30;101267.13;6123602;23;20006;-76
2022/07/11 11:08:40;;;;;;;1.70;0.82;;;;;;;39.16;23.77;101261.34;6124236;23;20013;-80
2022/07/11 11:11:05;;;;;;;2.20;1.00;;;;;;;39.94;23.28;101255.47;6120244;23;20437;-80
2022/07/11 11:13:35;;;;;;;3.00;0.90;;;;;;;39.55;22.38;101252.53;6124201;23;20013;-80
2022/07/11 11:16:02;;;;;;;2.78;0.77;;;;;;;39.47;23.63;101257.50;6121877;23;20719;-78
2022/07/11 11:18:35;;;;;;;1.63;0.80;;;;;;;39.61;25.14;101251.41;6124444;23;20337;-80
2022/07/11 11:21:00;;;;;;;1.75;0.75;;;;;;;39.58;23.82;101243.75;6123877;23;20066;-80
2022/07/11 11:23:29;;;;;;;1.60;0.50;;;;;;;39.58;23.30;101247.31;6124286;23;20014;-80
2022/07/11 11:25:54;;;;;;;4.07;0.80;;;;;;;39.51;24.63;101251.44;6123887;23;20010;-80
2022/07/11 11:28:23;;;;;;;2.45;0.70;;;;;;;39.89;23.71;101249.16;6124046;23;20444;-80
2022/07/11 11:30:56;;;;;;;1.98;0.60;;;;;;;39.89;23.08;101249.16;6123743;23;20010;-79
2022/07/11 11:33:25;;;;;;;3.58;0.82;;;;;;;38.78;24.82;101255.28;6123794;23;20371;-80
2022/07/11 11:36:12;;;;;;;1.88;0.80;;;;;;;38.75;23.64;101244.88;6124687;23;20006;-79
2022/07/11 11:38:40;;;;;;;1.70;0.60;;;;;;;38.85;24.03;101250.34;6124112;23;20006;-77
2022/07/11 11:41:06;;;;;;;3.50;0.77;;;;;;;39.19;23.59;101260.81;6123985;23;20069;-78